Página principal
METAR-TAF:

METAR-TAF

Aeroportos :

Aeroporto Internacional de Lárnaca

Larnaca, Chipre

latitude: 34-53N, longitude: 033-38E, altura: 2 m

Observação actual do tempo

O boletim foi feito há 25 minutos, às 03:00 UTC
Vento 4 kt de nor-noroeste, variando entre oes-noroeste e norte
Temperatura 20°C
Humidade 53%
Pressão 1014 hPa
Visibilidade 10 km ou mais
sem nuvens abaixo de 1500 metros e sem cumulonimbus

METAR: LCLK 240300Z 33004KT 290V350 CAVOK 20/10 Q1014 NOSIG

Hora: 06:25 (03:25 UTC)

Previsão

O boletim foi feito há 3 horas e 55 minutos, às 23:30 UTC
Previsão válida de 24 às 00 UTC a 24 às 24 UTC
Vento 6 kt de noroeste
Visibilidade 10 km ou mais
Poucas nuvensa uma altura de 3000 ft
Tornando-se
de 24 às 09 UTC a 24 às 12 UTC
Vento 12 kt de su-sudoeste
Tornando-se
de 24 às 17 UTC a 24 às 20 UTC
Vento 6 kt de noroeste

TAF: LCLK 232330Z 2400/2424 31006KT 9999 FEW030 BECMG 2409/2412 20012KT BECMG 2417/2420 31006KT

Observações e previsões do tempo de mais de 4000 aeroportos (mensagens METAR e TAF).

As estações disponíveis são os pontos amarelos e vermelhos sobre o mapa.

Mova o rato sobre o mapa para ver o nome da estação.

Depois clique no ponto para visualizar as observações e previsões meteorológicas.

Para alterar o mapa : clique nos botões verdes com uma cruz preta para aumentar o zoom; no botão verde com uma pitada de zoom; ou nas setas verdes para mapas adjacentes.


METAR-TAF: